Time;durP1;ratioP1;P1;durP2;ratioP2;P2;SDS_P1;SDS_P2;PMS_P1;PMS_P2;Temp;Humidity;BMP_temperature;BMP_pressure;BME280_temperature;BME280_humidity;BME280_pressure;Samples;Min_cycle;Max_cycle;Signal;HPM_P1;HPM_P2
2022/08/10 00:00:19;;;;;;;3.72;1.35;;;;;;;21.70;36.92;96408.50;10287230;28;98600;-60
2022/08/10 00:04:54;;;;;;;2.15;1.20;;;;;;;21.55;36.92;96402.63;10289731;28;97900;-61
2022/08/10 00:09:57;;;;;;;1.55;1.15;;;;;;;21.47;37.11;96404.50;10278107;28;97698;-60
2022/08/10 00:15:00;;;;;;;3.85;1.35;;;;;;;21.36;36.79;96409.66;10285113;28;98767;-62
2022/08/10 00:20:05;;;;;;;2.17;1.20;;;;;;;21.18;37.83;96408.50;10283283;28;99361;-61
2022/08/10 00:25:10;;;;;;;2.55;1.10;;;;;;;21.21;37.92;96399.31;10282831;28;98307;-63
2022/08/10 00:30:13;;;;;;;1.45;1.33;;;;;;;21.16;37.88;96399.13;10280769;28;97003;-60
2022/08/10 00:35:17;;;;;;;2.20;1.45;;;;;;;21.11;38.22;96397.91;10280929;28;98235;-63
2022/08/10 00:40:20;;;;;;;2.13;1.20;;;;;;;21.01;38.77;96392.22;10277478;28;98212;-60
2022/08/10 00:45:39;;;;;;;2.85;1.27;;;;;;;20.89;38.91;96385.94;10279539;28;98182;-59
2022/08/10 00:50:44;;;;;;;1.50;1.40;;;;;;;20.73;39.51;96379.22;10280467;28;97312;-60
2022/08/10 00:55:47;;;;;;;;;;;;;;;20.67;38.76;96383.53;10284069;28;97183;-60
2022/08/10 01:01:09;;;;;;;4.15;1.42;;;;;;;20.53;39.79;96381.91;10284561;28;99177;-61
2022/08/10 01:06:41;;;;;;;2.65;1.40;;;;;;;20.34;39.85;96376.44;10277827;28;99196;-60
2022/08/10 01:11:49;;;;;;;3.22;1.20;;;;;;;20.16;41.54;96373.56;10278766;28;99109;-59
2022/08/10 01:17:21;;;;;;;2.83;1.52;;;;;;;19.88;42.15;96371.94;10277847;28;97741;-60
2022/08/10 01:23:04;;;;;;;4.07;1.30;;;;;;;19.76;41.59;96362.94;10277399;28;98281;-60
2022/08/10 01:28:21;;;;;;;2.87;1.40;;;;;;;19.72;41.19;96361.72;10275753;28;99235;-60
2022/08/10 01:33:29;;;;;;;1.88;1.38;;;;;;;19.62;41.68;96352.31;10274871;28;99082;-60
2022/08/10 01:38:52;;;;;;;2.05;1.27;;;;;;;19.51;41.51;96352.91;10273370;28;99166;-59
2022/08/10 01:44:00;;;;;;;2.13;1.30;;;;;;;19.48;41.80;96361.25;10287129;28;97679;-61
2022/08/10 01:49:09;;;;;;;1.90;1.30;;;;;;;19.32;42.38;96362.44;10288807;28;97919;-61
2022/08/10 01:54:14;;;;;;;1.70;1.40;;;;;;;19.12;42.51;96362.38;10286325;28;99062;-62
2022/08/10 01:59:21;;;;;;;3.92;1.45;;;;;;;19.01;42.58;96365.59;10285342;28;98554;-60
2022/08/10 02:04:27;;;;;;;1.80;1.20;;;;;;;18.86;43.06;96369.22;10291562;28;97203;-60
2022/08/10 02:09:34;;;;;;;1.42;1.20;;;;;;;18.77;42.35;96375.63;10293931;28;97224;-59
2022/08/10 02:14:42;;;;;;;1.48;1.23;;;;;;;18.80;42.85;96375.25;10285003;28;98306;-59
2022/08/10 02:19:49;;;;;;;2.25;1.27;;;;;;;18.63;43.46;96373.94;10284889;28;98955;-62
2022/08/10 02:24:52;;;;;;;1.67;1.40;;;;;;;18.54;43.46;96372.47;10282743;28;98586;-59
2022/08/10 02:29:57;;;;;;;1.85;1.30;;;;;;;18.42;43.52;96382.75;10282965;28;97148;-61
2022/08/10 02:35:04;;;;;;;1.55;1.27;;;;;;;18.34;44.42;96378.41;10285052;28;97628;-62
2022/08/10 02:40:09;;;;;;;1.30;1.20;;;;;;;18.39;44.20;96383.16;10285802;28;97612;-59
2022/08/10 02:45:41;;;;;;;2.08;1.40;;;;;;;18.17;44.42;96379.72;10285385;28;99042;-61
2022/08/10 02:50:50;;;;;;;1.95;1.40;;;;;;;18.06;45.26;96389.81;10283296;28;98018;-59
2022/08/10 02:55:59;;;;;;;4.20;1.30;;;;;;;17.96;45.74;96396.44;10285877;28;97653;-60
2022/08/10 03:01:06;;;;;;;2.08;1.45;;;;;;;17.91;45.67;96389.91;10283845;28;97197;-59
2022/08/10 03:06:15;;;;;;;1.55;1.33;;;;;;;17.88;46.03;96397.41;10283838;28;97812;-59
2022/08/10 03:11:24;;;;;;;2.40;1.60;;;;;;;17.84;46.68;96381.09;10281420;28;98731;-62
2022/08/10 03:16:50;;;;;;;3.92;1.63;;;;;;;17.84;45.98;96380.25;10283348;28;98369;-60
2022/08/10 03:21:55;;;;;;;2.03;1.48;;;;;;;17.81;46.78;96378.81;10284918;28;99106;-60
2022/08/10 03:26:59;;;;;;;1.95;1.63;;;;;;;17.78;46.84;96381.00;10281929;28;96910;-60
2022/08/10 03:32:04;;;;;;;2.28;1.50;;;;;;;17.71;46.74;96371.19;10281958;28;98192;-59
2022/08/10 03:37:08;;;;;;;2.08;1.45;;;;;;;17.62;45.25;96380.25;10290368;28;97894;-59
2022/08/10 03:42:12;;;;;;;2.92;1.70;;;;;;;17.47;47.03;96379.50;10284969;28;97665;-59
2022/08/10 03:47:17;;;;;;;2.00;1.60;;;;;;;17.40;47.23;96375.97;10284595;28;97645;-60
2022/08/10 03:52:21;;;;;;;2.05;1.85;;;;;;;17.07;48.04;96379.84;10281032;28;96977;-59
2022/08/10 03:57:25;;;;;;;2.72;1.63;;;;;;;16.98;48.18;96376.50;10281731;28;97212;-62
2022/08/10 04:02:29;;;;;;;3.30;1.60;;;;;;;16.98;48.24;96380.97;10281598;28;96971;-59
2022/08/10 04:07:51;;;;;;;2.17;1.98;;;;;;;16.98;47.91;96380.97;10281401;28;97765;-59
2022/08/10 04:12:54;;;;;;;2.33;1.75;;;;;;;16.93;48.35;96378.88;10280418;28;97156;-60
2022/08/10 04:18:00;;;;;;;1.67;1.25;;;;;;;16.93;48.52;96389.44;10280125;28;98609;-59
2022/08/10 04:23:13;;;;;;;2.17;1.80;;;;;;;16.86;49.36;96393.81;10281812;28;98863;-59
2022/08/10 04:28:16;;;;;;;5.38;1.58;;;;;;;16.71;49.60;96388.53;10278270;28;98055;-59
2022/08/10 04:33:23;;;;;;;2.28;1.83;;;;;;;16.55;50.23;96400.06;10281768;28;97865;-62
2022/08/10 04:38:29;;;;;;;2.67;1.83;;;;;;;16.53;49.86;96415.25;10278943;28;96918;-60
2022/08/10 04:43:32;;;;;;;2.63;1.80;;;;;;;16.45;51.44;96420.63;10280835;28;97573;-59
2022/08/10 04:48:36;;;;;;;2.90;2.08;;;;;;;16.39;51.15;96431.88;10280808;28;98868;-59
2022/08/10 04:53:56;;;;;;;3.25;1.90;;;;;;;16.38;51.68;96435.50;10277847;28;97023;-59
2022/08/10 04:59:10;;;;;;;3.63;2.00;;;;;;;16.39;51.45;96429.25;10280560;28;98445;-59
2022/08/10 05:04:12;;;;;;;3.42;2.00;;;;;;;16.37;51.61;96437.31;10282538;28;99290;-59
2022/08/10 05:09:37;;;;;;;4.32;1.88;;;;;;;16.44;50.88;96440.06;10285915;28;97305;-59
2022/08/10 05:15:00;;;;;;;2.20;1.85;;;;;;;16.56;50.80;96435.19;10281485;28;97705;-61
2022/08/10 05:20:04;;;;;;;2.92;1.85;;;;;;;16.65;51.14;96435.91;10280287;28;98135;-59
2022/08/10 05:25:14;;;;;;;2.65;1.80;;;;;;;16.75;49.74;96436.50;10279615;28;96820;-61
2022/08/10 05:30:20;;;;;;;2.42;1.70;;;;;;;16.85;49.91;96428.28;10276339;28;98703;-59
2022/08/10 05:35:23;;;;;;;3.00;1.50;;;;;;;16.92;50.08;96435.31;10273835;28;98564;-59
2022/08/10 05:40:29;;;;;;;4.07;2.00;;;;;;;17.00;49.57;96437.88;10282744;28;97497;-59
2022/08/10 05:45:32;;;;;;;7.07;1.92;;;;;;;17.13;49.48;96437.19;10285568;28;97572;-61
2022/08/10 05:50:55;;;;;;;3.40;1.90;;;;;;;17.29;51.07;96441.44;10285536;28;96868;-59
2022/08/10 05:56:00;;;;;;;3.28;1.83;;;;;;;17.46;50.31;96435.97;10274958;28;97362;-59
2022/08/10 06:01:06;;;;;;;2.75;1.77;;;;;;;17.61;50.24;96451.75;10275031;28;99095;-59
2022/08/10 06:06:10;;;;;;;3.65;2.00;;;;;;;17.77;50.28;96448.91;10277101;28;96845;-59
2022/08/10 06:11:17;;;;;;;3.95;1.98;;;;;;;17.95;51.06;96448.50;10290192;28;97466;-59
2022/08/10 06:16:41;;;;;;;2.42;1.80;;;;;;;18.17;51.36;96448.47;10280245;28;98485;-59
2022/08/10 06:21:45;;;;;;;3.75;2.00;;;;;;;18.39;50.43;96447.44;10294318;28;97548;-60
2022/08/10 06:27:04;;;;;;;5.65;1.80;;;;;;;18.65;50.03;96451.28;10284403;28;98558;-59
2022/08/10 06:32:08;;;;;;;;;;;;;;;18.78;49.35;96456.69;10287344;28;99181;-58
2022/08/10 06:37:15;;;;;;;4.22;2.08;;;;;;;18.91;48.90;96460.44;10293882;28;96837;-58
2022/08/10 06:42:23;;;;;;;3.78;2.40;;;;;;;19.09;49.16;96458.13;10294497;28;97524;-58
2022/08/10 06:47:31;;;;;;;5.25;2.28;;;;;;;19.21;49.04;96450.41;10294933;28;97104;-58
2022/08/10 06:52:35;;;;;;;1.65;1.52;;;;;;;19.40;49.85;96455.00;10294121;28;97509;-58
2022/08/10 06:57:42;;;;;;;3.45;1.83;;;;;;;19.47;49.60;96460.31;10294621;28;96778;-57
2022/08/10 07:02:50;;;;;;;2.83;1.75;;;;;;;19.59;49.65;96464.03;10292190;28;96902;-58
2022/08/10 07:07:57;;;;;;;3.10;1.85;;;;;;;19.72;49.33;96451.81;10282308;28;96898;-58
2022/08/10 07:13:02;;;;;;;5.07;1.63;;;;;;;19.81;49.97;96451.44;10293651;28;96885;-60
2022/08/10 07:18:06;;;;;;;3.30;1.63;;;;;;;19.98;49.49;96457.22;10291368;28;96790;-57
2022/08/10 07:23:11;;;;;;;2.42;1.63;;;;;;;20.15;49.34;96462.13;10283181;28;96764;-58
2022/08/10 07:28:35;;;;;;;;;;;;;;;20.26;49.16;96445.59;10288207;28;97014;-58
2022/08/10 07:33:39;;;;;;;3.28;2.00;;;;;;;20.42;48.80;96438.25;10287293;28;99710;-58
2022/08/10 07:38:43;;;;;;;3.08;1.60;;;;;;;20.51;48.46;96427.25;10293079;28;96915;-57
2022/08/10 07:43:50;;;;;;;3.65;1.60;;;;;;;20.69;47.92;96436.41;10292074;28;96843;-59
2022/08/10 07:49:02;;;;;;;2.80;1.60;;;;;;;20.75;48.10;96441.75;10275881;28;97312;-58
2022/08/10 07:54:23;;;;;;;3.45;1.65;;;;;;;20.88;47.66;96440.88;10291829;28;98667;-59
2022/08/10 07:59:37;;;;;;;2.72;1.45;;;;;;;21.02;47.53;96441.66;10286610;28;97152;-58
2022/08/10 08:04:41;;;;;;;1.77;1.30;;;;;;;21.17;47.02;96441.41;10289171;28;97818;-58
2022/08/10 08:09:45;;;;;;;2.07;1.67;;;;;;;21.32;46.64;96438.50;10291624;28;96853;-58
2022/08/10 08:15:05;;;;;;;2.75;1.50;;;;;;;21.45;46.42;96430.47;10284480;28;97344;-58
2022/08/10 08:20:29;;;;;;;5.20;1.77;;;;;;;21.63;45.71;96432.44;10284647;28;99780;-58
2022/08/10 08:25:33;;;;;;;3.15;1.52;;;;;;;21.72;45.84;96441.00;10290289;28;96808;-58
2022/08/10 08:30:39;;;;;;;3.65;1.45;;;;;;;21.89;45.63;96433.34;10282435;28;97822;-58
2022/08/10 08:35:49;;;;;;;2.90;1.60;;;;;;;21.97;45.21;96426.94;10283003;28;98579;-60
2022/08/10 08:41:01;;;;;;;4.07;1.60;;;;;;;22.04;45.03;96423.22;10282141;28;98444;-61
2022/08/10 08:46:27;;;;;;;3.90;1.60;;;;;;;22.18;44.80;96423.09;10280243;28;96865;-60
2022/08/10 08:51:40;;;;;;;1.90;1.48;;;;;;;22.32;44.81;96423.78;10288019;28;96953;-60
2022/08/10 08:57:07;;;;;;;3.25;1.80;;;;;;;22.45;44.41;96423.69;10283637;28;97660;-58
2022/08/10 09:02:25;;;;;;;3.45;1.50;;;;;;;22.58;43.96;96426.28;10282783;28;97027;-58
2022/08/10 09:07:55;;;;;;;2.90;1.40;;;;;;;22.68;43.70;96416.97;10287014;28;96951;-58
2022/08/10 09:13:10;;;;;;;1.80;1.50;;;;;;;22.82;43.83;96418.44;10284896;28;96871;-59
2022/08/10 09:18:23;;;;;;;5.15;1.75;;;;;;;22.88;43.45;96406.91;10290381;28;96753;-58
2022/08/10 09:23:34;;;;;;;5.35;1.73;;;;;;;23.09;43.16;96402.19;10290082;28;97307;-58
2022/08/10 09:29:01;;;;;;;3.38;1.55;;;;;;;23.20;42.82;96390.78;10273389;28;97431;-58
2022/08/10 09:34:23;;;;;;;1.88;1.38;;;;;;;23.29;42.45;96400.13;10285650;28;97034;-59
2022/08/10 09:39:52;;;;;;;3.97;1.42;;;;;;;23.42;42.61;96390.34;10288983;28;99040;-58
2022/08/10 09:45:23;;;;;;;2.72;1.50;;;;;;;23.52;42.00;96386.09;10284686;28;97954;-58
2022/08/10 09:50:43;;;;;;;2.60;1.65;;;;;;;23.59;42.38;96386.00;10287325;28;98744;-59
2022/08/10 09:56:29;;;;;;;3.25;1.52;;;;;;;23.63;42.19;96381.03;10281574;28;97205;-58
2022/08/10 10:01:39;;;;;;;3.63;1.60;;;;;;;23.70;41.64;96382.53;10284073;28;97679;-58
2022/08/10 10:07:06;;;;;;;3.25;1.63;;;;;;;23.93;41.46;96383.66;10290759;28;96918;-59
2022/08/10 10:12:21;;;;;;;3.03;1.55;;;;;;;24.05;41.20;96384.50;10295592;28;97963;-58
2022/08/10 10:17:29;;;;;;;1.80;1.42;;;;;;;24.22;40.84;96378.50;10295855;28;97185;-58
2022/08/10 10:22:50;;;;;;;3.05;1.63;;;;;;;24.43;40.31;96380.59;10295115;28;96853;-58
2022/08/10 10:28:03;;;;;;;4.15;1.80;;;;;;;24.58;39.95;96371.34;10295031;28;96883;-58
2022/08/10 10:33:13;;;;;;;2.47;1.60;;;;;;;24.77;39.41;96370.16;10295738;28;97256;-58
2022/08/10 10:38:21;;;;;;;3.65;1.55;;;;;;;24.90;39.45;96365.63;10294810;28;97566;-58
2022/08/10 10:43:38;;;;;;;3.00;1.65;;;;;;;24.92;39.28;96364.31;10295376;28;96899;-59
2022/08/10 10:48:47;;;;;;;1.65;1.38;;;;;;;25.09;38.88;96359.06;10285235;28;96856;-59
2022/08/10 10:54:01;;;;;;;3.30;1.88;;;;;;;25.17;38.26;96348.00;10294737;28;97058;-58
2022/08/10 10:59:17;;;;;;;2.63;1.45;;;;;;;25.23;38.48;96346.22;10290160;28;97859;-59
2022/08/10 11:04:44;;;;;;;2.47;1.30;;;;;;;25.46;38.12;96348.00;10294071;28;96838;-59
2022/08/10 11:09:55;;;;;;;2.17;1.20;;;;;;;25.50;37.59;96334.97;10294458;28;96814;-60
2022/08/10 11:15:16;;;;;;;;;;;;;;;25.59;38.11;96329.00;10292524;28;96842;-58
2022/08/10 11:20:25;;;;;;;3.88;1.40;;;;;;;25.44;37.79;96326.03;10293850;28;97310;-58
2022/08/10 11:25:31;;;;;;;3.13;1.67;;;;;;;25.56;37.72;96321.47;10293919;28;96873;-58
2022/08/10 11:30:48;;;;;;;2.53;1.60;;;;;;;25.83;37.21;96320.06;10293455;28;96778;-60
2022/08/10 11:36:00;;;;;;;2.63;1.35;;;;;;;26.01;36.79;96314.44;10284127;28;98332;-59
2022/08/10 11:41:14;;;;;;;2.33;1.50;;;;;;;26.06;36.94;96308.34;10281237;28;97253;-58
2022/08/10 11:46:40;;;;;;;3.22;1.60;;;;;;;26.35;36.35;96299.19;10291361;28;97228;-58
2022/08/10 11:51:47;;;;;;;2.35;1.33;;;;;;;26.49;35.51;96294.28;10291566;28;98556;-58
2022/08/10 11:56:53;;;;;;;2.40;1.20;;;;;;;26.72;35.00;96290.53;10292876;28;96730;-59
2022/08/10 12:02:06;;;;;;;4.73;1.70;;;;;;;26.93;34.50;96283.56;10292299;28;97114;-59
2022/08/10 12:07:10;;;;;;;3.30;1.27;;;;;;;26.97;34.65;96275.88;10290147;28;96663;-60
2022/08/10 12:12:41;;;;;;;2.63;1.20;;;;;;;27.05;34.55;96275.41;10284653;28;96875;-59
2022/08/10 12:17:49;;;;;;;2.22;1.25;;;;;;;27.27;33.78;96269.22;10291641;28;96948;-58
2022/08/10 12:22:57;;;;;;;2.45;1.63;;;;;;;27.54;33.81;96260.31;10291257;28;96764;-59
2022/08/10 12:28:09;;;;;;;2.53;1.35;;;;;;;27.64;33.47;96260.44;10292735;28;96789;-58
2022/08/10 12:33:21;;;;;;;2.95;1.73;;;;;;;27.80;33.27;96259.47;10290115;28;98267;-58
2022/08/10 12:38:33;;;;;;;3.13;1.58;;;;;;;27.74;33.20;96260.53;10290800;28;96780;-60
2022/08/10 12:43:44;;;;;;;4.35;1.77;;;;;;;28.04;32.94;96261.81;10289594;28;98644;-58
2022/08/10 12:49:13;;;;;;;4.43;1.45;;;;;;;28.05;32.92;96255.38;10287697;28;96839;-58
2022/08/10 12:54:19;;;;;;;2.72;1.65;;;;;;;28.38;32.19;96248.88;10272047;28;98781;-58
2022/08/10 12:59:38;;;;;;;3.70;1.40;;;;;;;28.59;31.60;96241.72;10288387;28;96798;-58
2022/08/10 13:04:49;;;;;;;4.55;1.58;;;;;;;28.72;31.68;96231.56;10290406;28;96846;-58
2022/08/10 13:09:52;;;;;;;2.20;1.50;;;;;;;29.11;31.65;96236.53;10288848;28;96943;-59
2022/08/10 13:15:05;;;;;;;2.10;1.30;;;;;;;29.34;30.96;96230.63;10288724;28;96800;-59
2022/08/10 13:20:34;;;;;;;3.50;1.40;;;;;;;29.58;30.90;96224.78;10280620;28;96854;-60
2022/08/10 13:25:39;;;;;;;2.55;1.30;;;;;;;29.84;30.32;96214.00;10287366;28;96787;-60
2022/08/10 13:30:46;;;;;;;3.20;1.30;;;;;;;30.16;29.72;96196.72;10287484;28;96811;-60
2022/08/10 13:35:56;;;;;;;3.38;1.40;;;;;;;30.06;29.80;96198.31;10287160;28;97895;-58
2022/08/10 13:41:03;;;;;;;3.13;1.65;;;;;;;30.27;29.16;96195.59;10283262;28;97776;-59
2022/08/10 13:46:15;;;;;;;2.03;1.20;;;;;;;30.62;28.74;96177.66;10291984;28;97914;-59
2022/08/10 13:51:26;;;;;;;3.72;1.30;;;;;;;30.90;28.56;96175.38;10288291;28;97079;-59
2022/08/10 13:56:51;;;;;;;1.90;1.20;;;;;;;31.02;28.11;96165.06;10275482;28;97053;-58
2022/08/10 14:01:58;;;;;;;2.42;1.60;;;;;;;30.70;28.55;96154.69;10284989;28;98945;-59
2022/08/10 14:07:03;;;;;;;1.58;1.30;;;;;;;31.12;28.01;96153.38;10289171;28;97022;-59
2022/08/10 14:12:07;;;;;;;2.65;1.25;;;;;;;31.69;27.01;96161.81;10289826;28;97925;-58
2022/08/10 14:17:12;;;;;;;4.80;1.20;;;;;;;31.40;26.79;96157.25;10279022;28;100316;-59
2022/08/10 14:22:19;;;;;;;1.52;1.15;;;;;;;31.81;26.58;96151.44;10282680;28;97834;-58
2022/08/10 14:27:45;;;;;;;;;;;;;;;33.02;26.44;96148.63;10279755;28;99652;-60
2022/08/10 14:33:12;;;;;;;1.83;1.23;;;;;;;34.10;24.62;96142.19;10273559;28;97804;-59
2022/08/10 14:38:19;;;;;;;1.30;1.13;;;;;;;35.31;23.10;96136.38;10275036;28;98742;-61
2022/08/10 14:43:27;;;;;;;1.80;1.23;;;;;;;36.06;22.48;96138.53;10285625;28;96878;-61
2022/08/10 14:48:38;;;;;;;3.05;1.25;;;;;;;36.86;21.71;96132.19;10292271;28;96742;-60
2022/08/10 14:53:41;;;;;;;2.28;1.20;;;;;;;37.74;20.93;96131.00;10282468;28;96868;-59
2022/08/10 14:58:50;;;;;;;1.80;1.20;;;;;;;38.26;20.34;96122.59;10290666;28;97011;-59
2022/08/10 15:04:12;;;;;;;5.55;1.58;;;;;;;37.92;20.15;96123.53;10293735;28;96793;-59
2022/08/10 15:09:18;;;;;;;2.58;1.45;;;;;;;37.70;20.63;96121.84;10298194;28;96923;-60
2022/08/10 15:14:23;;;;;;;2.42;1.30;;;;;;;38.41;19.71;96112.22;10293943;28;97806;-59
2022/08/10 15:19:51;;;;;;;3.58;1.33;;;;;;;38.59;19.48;96108.25;10285065;28;97102;-59
2022/08/10 15:25:16;;;;;;;1.77;1.40;;;;;;;38.65;19.21;96101.50;10288055;28;97274;-60
2022/08/10 15:30:30;;;;;;;1.80;1.35;;;;;;;39.48;18.45;96106.41;10292377;28;98409;-61
2022/08/10 15:40:58;;;;;;;1.73;1.45;;;;;;;39.03;18.81;96099.75;10283868;28;96774;-60
2022/08/10 15:46:07;;;;;;;1.92;1.30;;;;;;;38.85;18.84;96104.56;10293465;28;96885;-60
2022/08/10 15:51:24;;;;;;;2.63;1.58;;;;;;;38.97;18.81;96092.88;10293138;28;96988;-60
2022/08/10 15:56:42;;;;;;;2.35;1.50;;;;;;;39.12;18.84;96086.81;10285545;28;96893;-61
2022/08/10 16:01:52;;;;;;;1.75;1.50;;;;;;;38.91;18.83;96081.38;10280685;28;97093;-60
2022/08/10 16:07:21;;;;;;;3.25;1.50;;;;;;;38.40;18.87;96080.63;10285203;28;97071;-60
2022/08/10 16:12:48;;;;;;;3.50;1.45;;;;;;;38.22;18.87;96079.94;10285811;28;96923;-59
2022/08/10 16:18:07;;;;;;;2.65;1.10;;;;;;;38.58;18.68;96073.91;10291041;28;98188;-59
2022/08/10 16:23:15;;;;;;;3.88;1.38;;;;;;;38.78;18.68;96071.53;10285515;28;98685;-60
2022/08/10 16:28:21;;;;;;;1.45;1.17;;;;;;;38.64;18.72;96089.00;10285851;28;97516;-59
2022/08/10 16:33:28;;;;;;;2.30;1.10;;;;;;;38.86;18.26;96085.13;10289065;28;96739;-60
2022/08/10 16:38:53;;;;;;;2.58;1.40;;;;;;;39.00;17.94;96081.28;10289816;28;96864;-60
2022/08/10 16:43:59;;;;;;;3.45;1.30;;;;;;;39.10;17.87;96082.81;10290220;28;97171;-59
2022/08/10 16:49:02;;;;;;;2.00;1.17;;;;;;;38.97;18.31;96074.59;10291944;28;98948;-60
2022/08/10 16:54:09;;;;;;;6.72;1.30;;;;;;;38.85;18.16;96077.25;10279575;28;96782;-59
2022/08/10 16:59:13;;;;;;;2.05;1.20;;;;;;;38.34;18.43;96082.75;10289967;28;96756;-60
2022/08/10 17:04:24;;;;;;;2.77;1.40;;;;;;;38.33;18.70;96077.59;10288482;28;96954;-60
2022/08/10 17:09:31;;;;;;;1.42;1.33;;;;;;;38.27;18.66;96079.75;10295452;28;96715;-60
2022/08/10 17:14:38;;;;;;;3.55;1.40;;;;;;;37.97;18.67;96073.47;10284561;28;97086;-59
2022/08/10 17:19:44;;;;;;;2.30;1.33;;;;;;;37.36;19.10;96074.47;10285297;28;97496;-61
2022/08/10 17:24:55;;;;;;;2.17;1.30;;;;;;;37.38;19.43;96072.22;10283527;28;96948;-59
2022/08/10 17:29:59;;;;;;;3.55;1.35;;;;;;;37.13;19.82;96068.44;10282406;28;99080;-60
2022/08/10 17:35:11;;;;;;;3.80;1.17;;;;;;;36.77;20.28;96066.84;10276310;28;97103;-59
2022/08/10 17:40:21;;;;;;;2.10;1.35;;;;;;;36.22;21.05;96077.16;10280161;28;98588;-60
2022/08/10 17:45:26;;;;;;;2.28;1.20;;;;;;;35.37;21.94;96084.63;10288603;28;96929;-61
2022/08/10 17:50:52;;;;;;;1.98;1.05;;;;;;;33.77;23.42;96093.50;10287520;28;96787;-60
2022/08/10 17:55:59;;;;;;;2.22;1.42;;;;;;;32.78;24.99;96086.50;10274307;28;97691;-60
2022/08/10 18:01:04;;;;;;;3.42;1.50;;;;;;;31.73;25.95;96093.47;10284136;28;96895;-60
2022/08/10 18:06:28;;;;;;;5.07;1.70;;;;;;;30.92;27.24;96095.00;10284547;28;97327;-62
2022/08/10 18:11:34;;;;;;;2.58;1.38;;;;;;;30.33;28.14;96097.47;10273103;28;97277;-60
2022/08/10 18:16:39;;;;;;;3.22;1.50;;;;;;;30.04;28.67;96090.06;10286465;28;97622;-60
2022/08/10 18:21:47;;;;;;;5.30;2.00;;;;;;;29.87;29.35;96089.56;10280672;28;97771;-60
2022/08/10 18:26:55;;;;;;;4.32;2.15;;;;;;;29.61;30.73;96096.91;10291774;28;96909;-60
2022/08/10 18:32:00;;;;;;;3.00;1.77;;;;;;;29.27;30.61;96103.66;10289927;28;97328;-60
2022/08/10 18:37:10;;;;;;;3.65;1.75;;;;;;;28.92;30.73;96099.91;10286710;28;100343;-61
2022/08/10 18:42:24;;;;;;;3.28;1.85;;;;;;;28.52;30.97;96108.69;10291500;28;98277;-60
2022/08/10 18:47:32;;;;;;;2.53;1.85;;;;;;;28.08;31.78;96109.84;10287158;28;98066;-60
2022/08/10 18:52:38;;;;;;;4.68;2.13;;;;;;;27.73;32.57;96121.22;10284357;28;96857;-60
2022/08/10 18:57:57;;;;;;;9.07;6.90;;;;;;;27.38;32.57;96123.38;10286263;28;97875;-61
2022/08/10 19:03:14;;;;;;;5.97;1.95;;;;;;;27.15;32.24;96121.06;10286091;28;98450;-61
2022/08/10 19:08:35;;;;;;;3.08;2.10;;;;;;;26.96;32.24;96126.81;10292710;28;96983;-60
2022/08/10 19:14:00;;;;;;;3.73;2.00;;;;;;;26.85;32.20;96135.78;10287128;28;96913;-61
2022/08/10 19:19:17;;;;;;;3.33;1.90;;;;;;;26.59;32.60;96142.75;10287268;28;97629;-60
2022/08/10 19:24:30;;;;;;;6.00;4.10;;;;;;;26.37;32.47;96141.72;10287740;28;96925;-61
2022/08/10 19:29:44;;;;;;;2.50;1.70;;;;;;;26.20;32.17;96140.97;10288306;28;98384;-59
2022/08/10 19:35:09;;;;;;;2.60;1.77;;;;;;;26.02;32.31;96149.31;10288385;28;99057;-60
2022/08/10 19:40:21;;;;;;;3.35;2.20;;;;;;;25.83;32.89;96152.28;10288543;28;97619;-61
2022/08/10 19:45:54;;;;;;;4.45;2.53;;;;;;;25.64;33.57;96153.59;10289905;28;96787;-61
2022/08/10 19:51:09;;;;;;;5.68;4.10;;;;;;;25.36;33.14;96126.69;10285773;28;96893;-59
2022/08/10 19:56:20;;;;;;;4.00;2.03;;;;;;;25.44;32.93;96162.88;10291444;28;97134;-59
2022/08/10 20:01:37;;;;;;;;;;;;;;;25.34;32.77;96176.94;10283199;28;97829;-60
2022/08/10 20:07:08;;;;;;;2.63;1.55;;;;;;;25.27;32.81;96170.09;10280564;28;96807;-60
2022/08/10 20:12:18;;;;;;;1.70;1.50;;;;;;;25.20;33.03;96171.09;10287903;28;96780;-60
2022/08/10 20:17:29;;;;;;;2.90;1.45;;;;;;;25.18;32.76;96178.56;10291867;28;96844;-59
2022/08/10 20:23:03;;;;;;;2.42;1.50;;;;;;;25.16;32.69;96180.63;10290198;28;96781;-61
2022/08/10 20:28:18;;;;;;;2.15;1.40;;;;;;;25.12;32.96;96184.03;10286999;28;96933;-60
2022/08/10 20:33:27;;;;;;;2.35;1.27;;;;;;;25.10;32.87;96189.63;10274039;28;98228;-64
2022/08/10 20:38:37;;;;;;;2.38;1.52;;;;;;;25.06;32.76;96185.78;10272082;28;97463;-61
2022/08/10 20:43:47;;;;;;;3.20;1.42;;;;;;;25.01;32.58;96183.06;10287836;28;96823;-60
2022/08/10 20:48:58;;;;;;;2.35;1.10;;;;;;;24.90;32.71;96175.91;10285910;28;97623;-60
2022/08/10 20:54:05;;;;;;;3.20;1.52;;;;;;;24.81;32.97;96183.50;10279383;28;97428;-59
2022/08/10 20:59:46;;;;;;;2.00;1.20;;;;;;;24.75;32.91;96187.09;10280417;28;98215;-60
2022/08/10 21:05:18;;;;;;;2.38;1.23;;;;;;;24.61;33.15;96175.88;10157063;28;97024;-60
2022/08/10 21:10:33;;;;;;;1.80;1.42;;;;;;;24.60;33.15;96183.09;10163957;28;97091;-59
2022/08/10 21:15:52;;;;;;;3.00;1.40;;;;;;;24.55;33.32;96182.19;10166106;28;97204;-60
2022/08/10 21:21:12;;;;;;;2.13;1.40;;;;;;;24.48;33.45;96191.13;10159017;28;98974;-65
2022/08/10 22:59:34;;;;;;;2.38;1.50;;;;;;;22.21;37.04;96231.09;10285370;28;96974;-59
2022/08/10 23:04:44;;;;;;;4.32;1.50;;;;;;;21.96;37.06;96229.28;10292940;28;98567;-59
2022/08/10 23:10:02;;;;;;;2.28;1.33;;;;;;;21.85;36.95;96233.50;10283892;28;97415;-60
2022/08/10 23:20:40;;;;;;;2.55;1.42;;;;;;;21.48;37.81;96249.31;10285194;28;98151;-60
2022/08/10 23:25:48;;;;;;;1.98;1.52;;;;;;;21.27;37.54;96247.00;10283657;28;96913;-59
2022/08/10 23:31:01;;;;;;;4.38;1.40;;;;;;;21.16;38.09;96239.75;10281877;28;97404;-59
2022/08/10 23:36:07;;;;;;;1.75;1.48;;;;;;;20.92;39.60;96242.13;10281114;28;97113;-59
2022/08/10 23:41:33;;;;;;;3.05;1.42;;;;;;;20.74;39.06;96248.16;10293302;28;97852;-60
2022/08/10 23:46:39;;;;;;;2.45;1.17;;;;;;;20.62;39.55;96247.97;10292255;28;97219;-60
2022/08/10 23:51:46;;;;;;;3.13;1.40;;;;;;;20.47;39.73;96248.22;10293448;28;96841;-59
2022/08/10 23:57:00;;;;;;;2.50;1.70;;;;;;;20.34;40.60;96250.94;10284247;28;96784;-61
